Seal Beach, California
Current Conditions -  °F | °C
As of 12:58 PM on Friday 24 Oct 2014 (Local Time) from KSLI Reporting Station
Clear Clear  
Wind Chill: 83°   Ceiling: Unl
Heat Index: 83°   Visibility: 10mi
Dew Point: 54°   Wind: 5mph
Humidity: 36%   Direction: 210°SSW
Pressure: 29.95"   Gusts: NA
Location:  33.74°N, 118.1°W
Report Text: KSLI 241958Z 21004KT 10SM CLR 28/12 A2995 RMK AO2A SLP145 T02830120
Loading
Personal Weather Stations






























Interactive Weather Map
Tropical Storm Tracking
New forecast layout! Learn more

10-Day Weather Forecast

Advertisements
Track Severe Weather on mobile